createdAt,value
2019-06-15T07:18:33.181Z,5.77
2019-06-15T07:21:35.844Z,5.57
2019-06-15T07:24:35.634Z,5.77
2019-06-15T07:27:38.188Z,8.33
2019-06-15T07:30:38.283Z,4.07
2019-06-15T07:33:38.143Z,5.17
2019-06-15T07:36:34.752Z,5.87
2019-06-15T07:39:37.448Z,3.03
2019-06-15T07:42:42.986Z,3.70
2019-06-15T07:45:37.134Z,6.13
2019-06-15T07:48:37.982Z,4.43
2019-06-15T07:51:37.943Z,2.60
2019-06-15T07:54:07.948Z,3.13
2019-06-15T07:56:39.175Z,2.57
2019-06-15T07:59:36.138Z,4.33
2019-06-15T08:02:35.635Z,5.23
2019-06-15T08:05:38.188Z,3.53
2019-06-15T08:08:08.297Z,3.67
2019-06-15T08:10:38.377Z,3.70
2019-06-15T08:13:10.014Z,2.80
2019-06-15T08:15:39.939Z,6.20
2019-06-15T08:18:09.940Z,4.53
2019-06-15T08:20:40.455Z,3.90
2019-06-15T08:23:37.341Z,2.47
2019-06-15T08:26:37.937Z,3.70
2019-06-15T08:29:34.519Z,1.90
2019-06-15T08:32:07.338Z,2.80
2019-06-15T08:34:37.481Z,2.23
2019-06-15T08:37:07.449Z,3.70
2019-06-15T08:39:37.021Z,3.70
2019-06-15T08:42:07.282Z,2.27
2019-06-15T08:44:37.529Z,3.57
2019-06-15T08:47:07.540Z,3.70
2019-06-15T08:49:37.140Z,3.43
2019-06-15T08:52:07.409Z,3.10
2019-06-15T08:54:37.304Z,6.70
2019-06-15T08:57:07.574Z,3.90
2019-06-15T08:59:37.186Z,3.33
2019-06-15T09:02:07.477Z,2.10
2019-06-15T09:04:37.124Z,5.33
2019-06-15T09:07:07.173Z,2.27
2019-06-15T09:09:36.861Z,1.93
2019-06-15T09:12:08.184Z,2.63
2019-06-15T09:14:38.148Z,3.27
2019-06-15T09:17:08.316Z,3.07
2019-06-15T09:19:38.143Z,2.10
2019-06-15T09:22:10.732Z,2.60
2019-06-15T09:24:40.663Z,2.40
2019-06-15T09:27:10.848Z,3.33
2019-06-15T09:29:41.019Z,2.90
2019-06-15T09:32:11.305Z,4.93
2019-06-15T09:34:41.009Z,3.30
2019-06-15T09:37:38.401Z,3.87
2019-06-15T09:40:08.368Z,7.70
2019-06-15T09:42:39.097Z,3.80
2019-06-15T09:45:09.869Z,5.23
2019-06-15T09:47:40.341Z,4.50
2019-06-15T09:50:10.347Z,1.67
2019-06-15T10:00:36.386Z,1.93
2019-06-15T10:03:37.282Z,1.53
2019-06-15T10:06:36.747Z,4.50
2019-06-15T10:19:34.821Z,3.50
2019-06-15T10:22:37.473Z,5.93
2019-06-15T10:28:32.374Z,3.70
2019-06-15T10:31:02.840Z,5.70
2019-06-15T10:33:32.571Z,4.90
2019-06-15T10:36:02.705Z,5.70
2019-06-15T10:38:33.014Z,1.80
2019-06-15T10:41:03.420Z,3.10
2019-06-15T10:43:33.098Z,2.00
2019-06-15T10:46:03.533Z,3.70
2019-06-15T10:48:33.522Z,2.33
2019-06-15T10:51:03.513Z,1.83
2019-06-15T10:53:33.678Z,2.90
2019-06-15T10:56:04.121Z,2.00
2019-06-15T10:58:33.775Z,3.17
2019-06-15T11:01:04.069Z,2.40
2019-06-15T11:03:34.439Z,2.80
2019-06-15T11:06:04.470Z,4.10
2019-06-15T11:08:34.316Z,2.43
2019-06-15T11:11:07.137Z,3.33
2019-06-15T11:13:37.049Z,3.60
2019-06-15T11:16:07.227Z,1.60
2019-06-15T11:18:37.352Z,3.00
2019-06-15T11:21:07.789Z,2.70
2019-06-15T11:23:37.714Z,2.53
2019-06-15T11:26:07.797Z,5.27
2019-06-15T11:28:37.476Z,3.73
2019-06-15T11:31:07.814Z,2.70
2019-06-15T11:33:37.824Z,1.97
2019-06-15T11:36:07.754Z,2.90
2019-06-15T11:38:37.531Z,2.00
2019-06-15T11:41:08.059Z,2.93
2019-06-15T11:43:39.313Z,3.10
2019-06-15T11:46:09.194Z,2.50
2019-06-15T11:48:41.739Z,3.07
2019-06-15T11:51:11.601Z,2.27
2019-06-15T11:53:41.589Z,2.63
2019-06-15T11:56:11.638Z,2.47
2019-06-15T11:58:41.840Z,2.27
2019-06-15T12:01:11.649Z,3.10
2019-06-15T12:03:41.933Z,1.60
2019-06-15T12:06:11.431Z,2.60
2019-06-15T12:08:42.161Z,1.80
2019-06-15T12:11:11.980Z,3.30
2019-06-15T12:13:42.038Z,2.37
2019-06-15T12:16:12.013Z,4.40
2019-06-15T12:18:42.288Z,2.93
2019-06-15T12:21:12.326Z,2.10
2019-06-15T12:23:42.234Z,3.33
2019-06-15T12:26:12.375Z,2.00
2019-06-15T12:28:42.693Z,3.53
2019-06-15T12:31:13.197Z,6.63
2019-06-15T12:33:43.426Z,1.77
2019-06-15T12:36:19.282Z,3.13
2019-06-15T12:38:46.283Z,1.80
2019-06-15T12:41:16.066Z,1.60
2019-06-15T12:43:46.290Z,1.90
2019-06-15T12:46:16.326Z,1.50
2019-06-15T12:48:46.722Z,3.93
2019-06-15T12:51:16.926Z,2.50
2019-06-15T12:53:50.141Z,4.30
2019-06-15T12:56:20.220Z,6.33
2019-06-15T12:58:50.436Z,3.97
2019-06-15T13:01:20.252Z,4.80
2019-06-15T13:03:50.407Z,10.20
2019-06-15T13:06:19.839Z,6.47
2019-06-15T13:08:49.620Z,3.90
2019-06-15T13:11:19.891Z,5.93
2019-06-15T13:13:49.529Z,4.07
2019-06-15T13:16:19.489Z,4.20
2019-06-15T13:18:49.542Z,1.77
2019-06-15T13:21:19.809Z,2.43
2019-06-15T13:23:49.741Z,1.73
2019-06-15T13:26:19.641Z,2.27
2019-06-15T13:28:51.140Z,2.43
2019-06-15T13:31:21.206Z,1.80
2019-06-15T13:33:49.645Z,3.20
2019-06-15T13:36:17.952Z,3.80
2019-06-15T13:38:46.250Z,1.60
2019-06-15T13:41:14.653Z,3.13
2019-06-15T13:43:43.025Z,4.90
2019-06-15T13:46:11.517Z,1.87
2019-06-15T13:48:39.970Z,2.03
2019-06-15T13:51:08.515Z,2.53
2019-06-15T13:53:36.848Z,2.50
2019-06-15T13:56:08.144Z,1.80
2019-06-15T13:58:36.640Z,2.17
2019-06-15T14:01:06.793Z,1.60
2019-06-15T14:03:38.103Z,2.80
2019-06-15T14:06:08.677Z,3.10
2019-06-15T14:08:38.994Z,2.00
2019-06-15T14:11:08.845Z,3.17
2019-06-15T14:13:39.124Z,2.93
2019-06-15T14:16:09.391Z,2.07
2019-06-15T14:18:40.196Z,2.63
2019-06-15T14:21:10.405Z,2.17
2019-06-15T14:23:40.304Z,5.93
2019-06-15T14:26:10.237Z,2.13
2019-06-15T14:28:40.211Z,5.80
2019-06-15T14:31:10.458Z,2.70
2019-06-15T14:33:38.857Z,2.60
2019-06-15T14:36:07.314Z,2.20
2019-06-15T14:38:35.662Z,4.07
2019-06-15T14:41:04.066Z,1.80
2019-06-15T14:43:32.406Z,2.77
2019-06-15T14:46:00.859Z,2.10
2019-06-15T14:48:30.547Z,3.60
2019-06-15T14:51:00.250Z,2.43
2019-06-15T14:53:28.593Z,2.90
2019-06-15T14:55:59.897Z,4.03
2019-06-15T14:58:30.440Z,2.50
2019-06-15T15:01:00.349Z,2.70
2019-06-15T15:03:30.787Z,2.27
2019-06-15T15:06:00.582Z,4.40
2019-06-15T15:08:30.952Z,2.07
2019-06-15T15:11:00.955Z,2.63
2019-06-15T15:13:31.592Z,2.33
2019-06-15T15:16:01.794Z,2.43
2019-06-15T15:18:31.806Z,3.87
2019-06-15T15:21:00.796Z,2.40
2019-06-15T15:23:29.802Z,2.70
2019-06-15T15:25:59.603Z,2.03
2019-06-15T15:28:30.997Z,2.60
2019-06-15T15:30:58.034Z,3.73
2019-06-15T15:33:26.456Z,3.37
2019-06-15T15:35:54.730Z,4.17
2019-06-15T15:38:23.156Z,3.40
2019-06-15T15:40:51.470Z,2.87
2019-06-15T15:43:19.788Z,2.47
2019-06-15T15:45:48.088Z,2.70
2019-06-15T15:48:18.520Z,3.03
2019-06-15T15:50:46.968Z,2.57
2019-06-15T15:53:15.525Z,4.40
2019-06-15T15:55:43.855Z,3.70
2019-06-15T15:58:12.181Z,2.20
2019-06-15T16:00:40.650Z,2.13
2019-06-15T16:03:09.116Z,6.57
2019-06-15T16:05:37.518Z,2.17
2019-06-15T16:08:06.664Z,3.80
2019-06-15T16:10:37.360Z,5.10
2019-06-15T16:13:06.436Z,3.10
2019-06-15T16:15:37.149Z,2.27
2019-06-15T16:18:06.824Z,2.50
2019-06-15T16:20:36.959Z,3.00
2019-06-15T16:23:07.459Z,3.90
2019-06-15T16:25:37.160Z,10.20
2019-06-15T16:28:07.091Z,3.43
2019-06-15T16:30:59.654Z,4.70
2019-06-15T16:33:07.707Z,6.73
2019-06-15T16:35:36.915Z,3.43
2019-06-15T16:38:06.834Z,3.17
2019-06-15T16:40:39.403Z,4.27
2019-06-15T16:43:08.048Z,6.87
2019-06-15T16:45:36.767Z,7.33
2019-06-15T16:48:06.368Z,4.13
2019-06-15T16:50:36.669Z,2.83
2019-06-15T16:53:05.493Z,3.07
2019-06-15T16:55:36.558Z,6.00
2019-06-15T16:58:04.123Z,3.80
2019-06-15T17:00:36.358Z,5.77
2019-06-15T17:03:20.278Z,4.50
2019-06-15T17:05:36.214Z,3.57
2019-06-15T17:08:06.907Z,6.13
2019-06-15T17:10:38.452Z,3.07
2019-06-15T17:13:07.741Z,3.77
2019-06-15T17:15:37.115Z,3.40
2019-06-15T17:18:05.783Z,2.80
2019-06-15T17:20:39.930Z,3.77
2019-06-15T17:23:08.331Z,3.30
2019-06-15T17:25:37.297Z,3.13
2019-06-15T17:28:05.653Z,2.93
2019-06-15T17:30:36.863Z,4.93
2019-06-15T17:33:05.937Z,3.60
2019-06-15T17:35:36.265Z,3.00
2019-06-15T17:38:04.602Z,3.03
2019-06-15T17:40:33.181Z,3.73
2019-06-15T17:43:01.681Z,3.23
2019-06-15T17:45:30.051Z,3.50
2019-06-15T17:47:58.525Z,3.60
2019-06-15T17:50:40.969Z,4.93
2019-06-15T17:53:09.626Z,3.50
2019-06-15T17:55:38.511Z,4.90
2019-06-15T17:58:07.319Z,4.03
2019-06-15T18:00:46.708Z,3.30
2019-06-15T18:03:16.773Z,4.60
2019-06-15T18:05:44.360Z,5.17
2019-06-15T18:08:12.933Z,3.73
2019-06-15T18:10:41.245Z,3.27
2019-06-15T18:13:09.815Z,3.20
2019-06-15T18:15:38.211Z,4.13
2019-06-15T18:18:07.218Z,3.67
2019-06-15T18:20:36.400Z,3.53
2019-06-15T18:23:06.086Z,3.60
2019-06-15T18:25:37.051Z,4.00
2019-06-15T18:28:06.487Z,3.60
2019-06-15T18:30:37.141Z,4.63
2019-06-15T18:33:07.073Z,4.30
2019-06-15T18:35:36.163Z,3.10
2019-06-15T18:38:07.065Z,4.77
2019-06-15T18:40:37.004Z,4.00
2019-06-15T18:43:07.103Z,3.50
2019-06-15T18:45:36.158Z,3.27
2019-06-15T18:48:06.238Z,15.23
2019-06-15T18:50:39.926Z,6.13
2019-06-15T18:53:08.517Z,5.23
2019-06-15T18:55:37.092Z,8.73
2019-06-15T18:58:05.587Z,4.57
2019-06-15T19:00:34.094Z,4.13
2019-06-15T19:03:06.917Z,5.70
2019-06-15T19:05:37.247Z,5.87
2019-06-15T19:08:06.552Z,3.90
2019-06-15T19:10:37.198Z,4.13
2019-06-15T19:13:07.399Z,4.67
2019-06-15T19:15:37.281Z,4.07
2019-06-15T19:18:07.495Z,5.30
2019-06-15T19:20:37.267Z,4.60
2019-06-15T19:23:06.806Z,6.70
2019-06-15T19:25:36.361Z,3.50
2019-06-15T19:28:05.261Z,4.53
2019-06-15T19:30:33.665Z,3.77
2019-06-15T19:33:01.959Z,3.87
2019-06-15T19:35:30.313Z,6.83
2019-06-15T19:37:58.716Z,5.10
2019-06-15T19:40:27.195Z,3.87
2019-06-15T19:42:57.022Z,6.53
2019-06-15T19:45:26.700Z,7.53
2019-06-15T19:47:55.139Z,4.23
2019-06-15T19:50:23.496Z,4.07
2019-06-15T19:52:51.859Z,6.50
2019-06-15T19:55:20.369Z,5.43
2019-06-15T19:57:48.719Z,4.77
2019-06-15T20:00:17.428Z,4.93
2019-06-15T20:02:47.979Z,3.70
2019-06-15T20:05:16.006Z,4.20
2019-06-15T20:07:46.607Z,5.50
2019-06-15T20:10:16.486Z,6.60
2019-06-15T20:12:46.576Z,3.83
2019-06-15T20:15:16.819Z,4.17
2019-06-15T20:17:46.161Z,9.13
2019-06-15T20:20:14.889Z,6.00
2019-06-15T20:22:43.284Z,3.93
2019-06-15T20:25:11.922Z,6.30
2019-06-15T20:27:40.263Z,4.33
2019-06-15T20:30:09.147Z,5.30
2019-06-15T20:32:37.617Z,4.17
2019-06-15T20:35:16.598Z,4.23
2019-06-15T20:37:39.241Z,7.70
2019-06-15T20:40:09.395Z,4.70
2019-06-15T20:42:38.082Z,4.20
2019-06-15T20:45:11.141Z,4.40
2019-06-15T20:47:39.540Z,7.97
2019-06-15T20:50:21.970Z,4.57
2019-06-15T20:52:39.099Z,4.53
2019-06-15T20:55:07.644Z,5.17
2019-06-15T20:57:36.126Z,3.73
2019-06-15T21:00:06.664Z,6.73
2019-06-15T21:02:36.188Z,4.70
2019-06-15T21:05:07.711Z,4.00
2019-06-15T21:07:36.312Z,5.20
2019-06-15T21:10:07.218Z,7.13
2019-06-15T21:12:37.505Z,6.50
2019-06-15T21:15:07.395Z,4.93
2019-06-15T21:17:37.145Z,6.33
2019-06-15T21:20:09.333Z,10.80
2019-06-15T21:22:37.760Z,4.93
2019-06-15T21:25:07.502Z,4.73
2019-06-15T21:27:36.842Z,4.40
2019-06-15T21:30:10.243Z,5.00
2019-06-15T21:32:38.656Z,4.10
2019-06-15T21:35:10.549Z,4.70
2019-06-15T21:37:39.133Z,5.77
2019-06-15T21:40:08.059Z,5.63
2019-06-15T21:42:36.453Z,8.57
2019-06-15T21:45:07.587Z,8.77
2019-06-15T21:47:37.175Z,6.07
2019-06-15T21:50:09.623Z,9.70
2019-06-15T21:52:37.937Z,6.73
2019-06-15T21:55:07.197Z,6.53
2019-06-15T21:57:36.564Z,5.97
2019-06-15T22:00:17.197Z,5.20
2019-06-15T22:02:46.924Z,6.40
2019-06-15T22:05:16.620Z,8.73
2019-06-15T22:07:44.571Z,7.33
2019-06-15T22:10:13.141Z,6.27
2019-06-15T22:12:41.571Z,8.13
2019-06-15T22:15:10.884Z,7.50
2019-06-15T22:17:39.241Z,9.07
2019-06-15T22:20:07.949Z,12.97
2019-06-15T22:22:36.610Z,7.20
2019-06-15T22:25:06.934Z,6.53
2019-06-15T22:27:36.198Z,9.93
2019-06-15T22:30:08.314Z,8.47
2019-06-15T22:32:36.774Z,8.27
2019-06-15T22:35:07.501Z,10.53
2019-06-15T22:37:36.139Z,8.23
2019-06-15T22:40:08.407Z,12.30
2019-06-15T22:42:36.846Z,14.00
2019-06-15T22:45:06.884Z,8.10
2019-06-15T22:47:36.139Z,7.40
2019-06-15T22:50:07.050Z,8.43
2019-06-15T22:52:36.391Z,11.07
2019-06-15T22:55:08.116Z,7.73
2019-06-15T22:57:37.103Z,7.03
2019-06-15T23:00:07.606Z,7.10
2019-06-15T23:02:36.467Z,7.30
2019-06-15T23:05:06.523Z,9.70
2019-06-15T23:07:36.292Z,8.23
2019-06-15T23:10:07.044Z,8.10
2019-06-15T23:12:37.242Z,6.47
2019-06-15T23:15:07.218Z,6.40
2019-06-15T23:17:37.156Z,7.33
2019-06-15T23:20:06.767Z,6.13
2019-06-15T23:22:35.569Z,7.60
2019-06-15T23:25:06.206Z,8.00
2019-06-15T23:27:34.793Z,7.37
2019-06-15T23:30:06.731Z,6.90
2019-06-15T23:32:34.958Z,8.90
2019-06-15T23:35:06.490Z,7.43
2019-06-15T23:37:37.332Z,6.00
2019-06-15T23:40:16.919Z,6.30
2019-06-15T23:42:46.000Z,7.70
2019-06-15T23:45:16.104Z,7.10
2019-06-15T23:47:46.701Z,10.70
2019-06-15T23:50:17.012Z,7.33
2019-06-15T23:52:46.848Z,7.43
2019-06-15T23:55:16.462Z,7.77
2019-06-15T23:57:46.490Z,5.40
